Time;durP1;ratioP1;P1;durP2;ratioP2;P2;SDS_P1;SDS_P2;PMS_P1;PMS_P2;Temp;Humidity;BMP_temperature;BMP_pressure;BME280_temperature;BME280_humidity;BME280_pressure;Samples;Min_cycle;Max_cycle;Signal;HPM_P1;HPM_P2
2022/03/22 00:00:17;;;;;;;17.58;10.43;;;;;;;-1.21;55.55;96215.97;5050600;28;20154;-70
2022/03/22 00:02:42;;;;;;;17.33;9.68;;;;;;;-0.99;51.25;96234.34;5049224;28;20037;-70
2022/03/22 00:05:08;;;;;;;20.33;11.05;;;;;;;-1.32;53.51;96229.75;5053592;28;20033;-70
2022/03/22 00:07:34;;;;;;;15.15;8.82;;;;;;;-1.38;54.37;96226.41;5054250;28;20032;-70
2022/03/22 00:09:59;;;;;;;15.35;9.48;;;;;;;-1.21;53.42;96235.53;5053153;28;20068;-70
2022/03/22 00:12:24;;;;;;;14.43;9.18;;;;;;;-1.28;53.57;96226.28;5053030;28;20036;-70
2022/03/22 00:14:50;;;;;;;11.30;7.53;;;;;;;-1.38;54.71;96210.28;5053024;28;20037;-70
2022/03/22 00:17:15;;;;;;;16.45;9.02;;;;;;;-1.52;54.59;96186.69;5053036;28;20067;-70
2022/03/22 00:19:41;;;;;;;20.00;11.13;;;;;;;-1.31;56.25;96216.13;5052986;28;20060;-70
2022/03/22 00:22:06;;;;;;;16.17;9.65;;;;;;;-1.31;56.68;96200.81;5052894;28;20036;-70
2022/03/22 00:24:32;;;;;;;14.52;8.88;;;;;;;-1.28;54.91;96188.88;5054052;28;20028;-70
2022/03/22 00:26:57;;;;;;;15.75;8.70;;;;;;;-1.16;54.43;96210.81;5053939;28;20028;-70
2022/03/22 00:29:22;;;;;;;46.30;27.25;;;;;;;-1.12;53.30;96214.97;5053940;28;20455;-70
2022/03/22 00:31:48;;;;;;;45.00;24.67;;;;;;;-1.36;54.27;96218.75;5052710;28;20025;-70
2022/03/22 00:34:13;;;;;;;29.92;17.65;;;;;;;-1.41;55.07;96216.25;5054267;28;20127;-70
2022/03/22 00:36:43;;;;;;;38.22;20.48;;;;;;;-1.33;54.56;96212.78;5019304;28;20033;-70
2022/03/22 00:39:09;;;;;;;34.17;19.83;;;;;;;-1.31;54.56;96208.47;5007184;28;20040;-70
2022/03/22 00:41:34;;;;;;;23.63;14.07;;;;;;;-1.27;56.77;96207.56;5015779;28;20112;-70
2022/03/22 00:43:59;;;;;;;18.15;10.45;;;;;;;-1.12;56.25;96214.97;5015354;28;20029;-70
2022/03/22 00:46:25;;;;;;;16.10;10.45;;;;;;;-1.22;56.41;96209.19;5030914;28;20427;-70
2022/03/22 00:48:50;;;;;;;17.05;10.40;;;;;;;-1.16;56.75;96206.53;5033328;28;20056;-70
2022/03/22 00:51:16;;;;;;;27.98;15.07;;;;;;;-0.94;54.36;96189.22;5015358;28;20479;-70
2022/03/22 00:53:41;;;;;;;26.02;14.88;;;;;;;-1.03;54.79;96198.69;5030593;28;20029;-70
2022/03/22 00:56:08;;;;;;;31.38;17.05;;;;;;;-1.10;55.42;96207.31;5013281;28;20044;-70
2022/03/22 00:58:34;;;;;;;32.13;18.05;;;;;;;-1.13;56.03;96213.31;5031274;28;20495;-71
2022/03/22 01:00:59;;;;;;;32.40;18.48;;;;;;;-1.29;55.47;96209.28;5032357;28;20043;-70
2022/03/22 01:03:28;;;;;;;32.90;16.38;;;;;;;-1.39;55.65;96200.94;5031442;28;20025;-70
2022/03/22 01:05:54;;;;;;;31.42;17.55;;;;;;;-1.36;56.87;96216.19;5031076;28;20048;-70
2022/03/22 01:08:19;;;;;;;25.85;15.35;;;;;;;-1.36;56.64;96221.31;5030404;28;20037;-70
2022/03/22 01:10:52;;;;;;;29.77;16.40;;;;;;;-1.19;55.82;96213.41;5030668;28;20547;-70
2022/03/22 01:13:21;;;;;;;26.30;15.65;;;;;;;-1.19;56.07;96218.50;5031325;28;20112;-70
2022/03/22 01:15:47;;;;;;;25.52;14.93;;;;;;;-1.13;56.19;96211.59;5013986;28;20030;-70
2022/03/22 01:18:12;;;;;;;29.00;16.02;;;;;;;-1.14;55.91;96197.16;5032149;28;20045;-70
2022/03/22 01:20:43;;;;;;;27.83;16.02;;;;;;;-1.24;56.13;96202.44;5031886;28;20029;-70
2022/03/22 01:23:09;;;;;;;29.85;16.27;;;;;;;-0.98;56.10;96209.69;5015563;28;20033;-70
2022/03/22 01:25:34;;;;;;;29.73;16.15;;;;;;;-0.85;56.29;96202.69;5031872;28;20488;-70
2022/03/22 01:28:01;;;;;;;27.95;15.98;;;;;;;-0.97;56.00;96206.28;5031715;28;20041;-70
2022/03/22 01:30:27;;;;;;;28.35;16.55;;;;;;;-0.95;56.43;96200.28;5033129;28;20034;-70
2022/03/22 01:32:53;;;;;;;33.97;16.00;;;;;;;-1.00;56.99;96188.47;5031692;28;20045;-70
2022/03/22 01:35:19;;;;;;;27.63;15.43;;;;;;;-0.99;57.12;96178.22;5015329;28;20065;-70
2022/03/22 01:37:47;;;;;;;17.00;10.30;;;;;;;-1.06;55.16;96180.88;5039762;28;20072;-70
2022/03/22 01:40:12;;;;;;;18.98;10.73;;;;;;;-1.08;54.27;96187.75;5051572;28;20483;-70
2022/03/22 01:42:38;;;;;;;20.30;10.35;;;;;;;-1.01;53.94;96179.94;5035071;28;20037;-70
2022/03/22 01:45:04;;;;;;;18.80;11.27;;;;;;;-0.92;53.57;96184.06;5051417;28;20419;-70
2022/03/22 01:47:29;;;;;;;15.88;10.13;;;;;;;-0.84;52.52;96178.84;5034467;28;20068;-70
2022/03/22 01:49:55;;;;;;;22.55;11.52;;;;;;;-0.79;53.63;96177.91;5052625;28;20041;-70
2022/03/22 01:52:23;;;;;;;18.00;11.65;;;;;;;-0.82;52.63;96164.34;5052384;28;20453;-70
2022/03/22 01:54:51;;;;;;;18.48;10.73;;;;;;;-0.70;51.29;96171.78;5034891;28;20040;-70
2022/03/22 01:57:17;;;;;;;17.40;10.10;;;;;;;-0.61;50.79;96169.09;5051053;28;20056;-70
2022/03/22 01:59:44;;;;;;;18.13;9.13;;;;;;;-0.52;53.61;96168.94;5034658;28;20067;-70
2022/03/22 02:07:37;;;;;;;23.38;12.05;;;;;;;-0.39;52.77;96163.59;5036872;28;20526;-70
2022/03/22 02:10:03;;;;;;;18.55;10.25;;;;;;;-0.57;53.94;96172.44;5034350;28;20036;-70
2022/03/22 02:12:28;;;;;;;28.23;16.23;;;;;;;-0.36;53.22;96171.19;5034235;28;20025;-71
2022/03/22 02:14:53;;;;;;;29.48;16.92;;;;;;;-0.58;53.64;96168.22;5050824;28;20037;-70
2022/03/22 02:17:19;;;;;;;26.58;14.20;;;;;;;-0.75;53.07;96160.84;5051971;28;20025;-70
2022/03/22 02:19:44;;;;;;;20.77;12.10;;;;;;;-0.70;54.54;96169.22;5050851;28;20166;-70
2022/03/22 02:22:11;;;;;;;25.35;14.27;;;;;;;-0.66;54.91;96170.06;5017549;28;20399;-70
2022/03/22 02:24:37;;;;;;;32.75;16.90;;;;;;;-0.70;53.98;96170.09;5034304;28;20033;-70
2022/03/22 02:27:03;;;;;;;34.60;18.30;;;;;;;-0.73;54.68;96165.03;5033134;28;20177;-70
2022/03/22 02:29:28;;;;;;;21.02;12.05;;;;;;;-0.72;54.94;96148.03;5051373;28;20479;-70
2022/03/22 02:31:53;;;;;;;23.52;12.90;;;;;;;-0.65;54.80;96157.25;5050477;28;20036;-70
2022/03/22 02:34:19;;;;;;;34.90;17.40;;;;;;;-1.10;55.06;96087.44;5033896;28;20056;-70
2022/03/22 02:36:45;;;;;;;45.42;20.35;;;;;;;-0.85;55.39;96155.03;5050250;28;20423;-70
2022/03/22 02:39:10;;;;;;;26.17;12.55;;;;;;;-0.62;55.67;96159.75;5031654;28;20041;-70
2022/03/22 02:41:36;;;;;;;19.95;11.50;;;;;;;-0.48;54.20;96162.03;5030469;28;20041;-70
2022/03/22 02:44:01;;;;;;;20.40;11.45;;;;;;;-0.74;52.49;96157.41;5031627;28;20032;-70
2022/03/22 02:46:27;;;;;;;25.40;12.18;;;;;;;-0.99;52.07;96151.88;5030367;28;20388;-70
2022/03/22 02:48:52;;;;;;;66.60;23.88;;;;;;;-0.95;52.27;96164.56;5031552;28;20036;-70
2022/03/22 02:51:17;;;;;;;29.25;14.40;;;;;;;-0.82;54.39;96174.56;5030124;28;20474;-70
2022/03/22 02:53:43;;;;;;;37.47;20.63;;;;;;;-0.88;54.63;96172.94;5030297;28;20060;-70
2022/03/22 02:56:09;;;;;;;30.88;18.05;;;;;;;-1.01;54.91;96167.19;5030271;28;20029;-70
2022/03/22 02:58:34;;;;;;;28.73;16.65;;;;;;;-0.99;53.96;96162.09;5030063;28;20029;-71
2022/03/22 03:01:00;;;;;;;20.75;11.70;;;;;;;-1.15;54.48;96158.91;5013772;28;20029;-70
2022/03/22 03:03:26;;;;;;;21.48;12.02;;;;;;;-1.15;54.90;96164.88;5013684;28;20491;-70
2022/03/22 03:05:51;;;;;;;27.70;13.30;;;;;;;-1.22;55.43;96167.56;5031007;28;20040;-70
2022/03/22 03:08:17;;;;;;;13.88;8.68;;;;;;;-0.94;53.15;96166.25;5029851;28;20032;-72
2022/03/22 03:10:42;;;;;;;25.95;15.98;;;;;;;-1.15;54.85;96181.88;5030052;28;20171;-70
2022/03/22 03:13:08;;;;;;;23.67;13.60;;;;;;;-1.41;54.74;96174.63;5031587;28;20021;-70
2022/03/22 03:15:33;;;;;;;20.90;11.85;;;;;;;-1.58;55.17;96178.25;5013469;28;20419;-70
2022/03/22 03:17:59;;;;;;;21.35;12.13;;;;;;;-1.40;56.65;96166.94;5030818;28;20049;-70
2022/03/22 03:20:25;;;;;;;26.17;14.55;;;;;;;-1.54;56.53;96161.19;5029666;28;20040;-70
2022/03/22 03:22:50;;;;;;;41.67;18.63;;;;;;;-1.66;56.19;96171.56;5013400;28;20522;-70
2022/03/22 03:25:18;;;;;;;30.83;16.63;;;;;;;-1.48;55.93;96171.31;5031103;28;20033;-70
2022/03/22 03:27:43;;;;;;;25.08;14.55;;;;;;;-1.69;55.67;96163.97;5030766;28;20564;-70
2022/03/22 03:30:09;;;;;;;23.60;13.27;;;;;;;-1.76;56.04;96175.94;5029753;28;20109;-70
2022/03/22 03:32:34;;;;;;;24.42;13.48;;;;;;;-1.74;56.79;96176.75;5030774;28;20488;-70
2022/03/22 03:35:00;;;;;;;24.65;14.07;;;;;;;-1.85;56.63;96164.16;5013239;28;20046;-70
2022/03/22 03:37:28;;;;;;;18.45;10.40;;;;;;;-1.92;55.10;96157.47;5035159;28;20052;-70
2022/03/22 03:39:53;;;;;;;21.05;10.25;;;;;;;-1.78;55.69;96171.72;5032867;28;20037;-70
2022/03/22 03:42:18;;;;;;;17.35;9.27;;;;;;;-1.69;56.11;96163.97;5050570;28;20029;-70
2022/03/22 03:47:28;;;;;;;14.30;8.77;;;;;;;-1.60;55.27;96156.19;5035528;28;20043;-71
2022/03/22 03:49:58;;;;;;;16.92;10.30;;;;;;;-1.84;54.75;96165.00;5016273;28;20044;-70
2022/03/22 03:52:27;;;;;;;25.17;9.70;;;;;;;-1.81;55.40;96178.56;5050554;28;20028;-70
2022/03/22 03:54:53;;;;;;;21.52;12.10;;;;;;;-2.06;55.66;96164.44;5032603;28;20517;-70
2022/03/22 03:57:19;;;;;;;25.17;13.77;;;;;;;-2.35;56.57;96160.50;5016215;28;20112;-70
2022/03/22 03:59:44;;;;;;;20.70;12.02;;;;;;;-2.05;55.64;96168.69;5016285;28;20033;-70
2022/03/22 04:02:10;;;;;;;20.20;11.98;;;;;;;-2.29;56.70;96174.88;5049214;28;20044;-70
2022/03/22 04:04:37;;;;;;;19.20;10.82;;;;;;;-2.43;57.09;96162.31;5032854;28;20037;-70
2022/03/22 04:07:03;;;;;;;19.60;10.65;;;;;;;-2.35;57.38;96163.06;5032556;28;20407;-70
2022/03/22 04:09:28;;;;;;;31.23;14.35;;;;;;;-2.42;58.57;96168.22;5050372;28;20541;-70
2022/03/22 04:11:54;;;;;;;13.05;7.63;;;;;;;-2.27;56.43;96173.16;5049458;28;20037;-70
2022/03/22 04:14:19;;;;;;;14.63;8.48;;;;;;;-2.47;55.91;96171.69;5049064;28;20514;-70
2022/03/22 04:16:46;;;;;;;13.63;7.82;;;;;;;-2.49;57.18;96170.00;5016018;28;20037;-70
2022/03/22 04:19:11;;;;;;;12.30;7.63;;;;;;;-2.58;58.27;96170.94;5032933;28;20049;-70
2022/03/22 04:21:37;;;;;;;12.63;7.55;;;;;;;-2.50;58.09;96163.25;5050654;28;20098;-70
2022/03/22 04:24:10;;;;;;;11.65;6.75;;;;;;;-2.47;59.15;96160.66;5032507;28;20064;-70
2022/03/22 04:26:40;;;;;;;13.70;8.05;;;;;;;-2.42;58.87;96158.03;5016071;28;20525;-70
2022/03/22 04:34:34;;;;;;;14.90;8.75;;;;;;;-2.51;55.58;96166.63;5035166;28;20044;-69
2022/03/22 04:37:01;;;;;;;18.33;9.20;;;;;;;-2.55;55.01;96152.25;5046972;28;20025;-69
2022/03/22 04:39:27;;;;;;;14.32;9.10;;;;;;;-2.43;54.83;96156.38;5028919;28;20037;-70
2022/03/22 04:41:53;;;;;;;15.98;9.88;;;;;;;-2.29;53.31;96155.34;5029022;28;20021;-70
2022/03/22 04:44:18;;;;;;;13.70;9.02;;;;;;;-2.09;53.60;96160.25;5012401;28;20030;-70
2022/03/22 04:46:44;;;;;;;36.25;20.05;;;;;;;-1.83;53.87;96165.00;5029057;28;20080;-69
2022/03/22 04:49:09;;;;;;;32.75;16.13;;;;;;;-2.01;54.35;96157.56;5030166;28;20049;-70
2022/03/22 04:57:03;;;;;;;41.70;17.98;;;;;;;-1.99;56.26;96196.63;5031459;28;20048;-69
2022/03/22 04:59:28;;;;;;;25.70;14.10;;;;;;;-2.25;56.32;96146.84;4998446;28;20132;-70
2022/03/22 05:01:54;;;;;;;64.38;24.02;;;;;;;-2.30;57.58;96132.47;5015015;28;20037;-70
2022/03/22 05:04:19;;;;;;;33.78;16.30;;;;;;;-2.29;56.01;96177.44;5014932;28;20025;-70
2022/03/22 05:06:45;;;;;;;26.05;14.00;;;;;;;-2.20;56.78;96138.28;5012172;28;20037;-70
2022/03/22 05:09:11;;;;;;;25.30;12.88;;;;;;;-2.14;56.79;96171.34;5031223;28;20084;-70
2022/03/22 05:11:36;;;;;;;27.85;15.38;;;;;;;-1.95;56.81;96172.81;5014425;28;20110;-70
2022/03/22 05:14:02;;;;;;;31.70;15.65;;;;;;;-1.87;56.70;96159.94;5014668;28;20026;-70
2022/03/22 05:16:29;;;;;;;31.05;16.50;;;;;;;-1.79;56.77;96163.25;5039610;28;20068;-70
2022/03/22 05:18:55;;;;;;;33.13;16.15;;;;;;;-1.73;56.96;96177.59;5032902;28;20045;-70
2022/03/22 05:21:21;;;;;;;36.80;16.83;;;;;;;-1.51;55.57;96167.97;5021697;28;20021;-70
2022/03/22 05:23:46;;;;;;;31.52;15.95;;;;;;;-1.68;56.10;96163.09;5030818;28;20045;-69
2022/03/22 05:26:15;;;;;;;28.52;15.13;;;;;;;-1.75;56.33;96158.97;5031964;28;20038;-70
2022/03/22 05:28:41;;;;;;;35.00;17.88;;;;;;;-1.74;56.32;96151.28;5031762;28;20048;-70
2022/03/22 05:31:08;;;;;;;35.53;16.60;;;;;;;-1.49;56.16;96166.25;4998980;28;20484;-70
2022/03/22 05:33:33;;;;;;;30.33;15.55;;;;;;;-1.37;55.42;96161.78;5032868;28;20499;-70
2022/03/22 05:35:58;;;;;;;27.67;13.82;;;;;;;-0.96;55.85;96160.31;5031713;28;20041;-70
2022/03/22 05:38:27;;;;;;;22.17;12.65;;;;;;;-0.72;55.87;96163.34;5032875;28;20492;-70
2022/03/22 05:40:53;;;;;;;23.55;12.60;;;;;;;-0.75;55.63;96160.84;5031716;28;20401;-70
2022/03/22 05:43:18;;;;;;;21.48;11.57;;;;;;;-0.60;55.97;96162.28;5032994;28;20151;-70
2022/03/22 05:45:48;;;;;;;50.35;22.80;;;;;;;-0.32;53.44;96162.63;5031508;28;20038;-70
2022/03/22 05:48:26;;;;;;;53.53;26.10;;;;;;;-0.17;53.47;96159.75;5015191;28;20041;-70
2022/03/22 05:50:51;;;;;;;40.70;21.13;;;;;;;0.26;53.23;96152.94;4999411;28;20078;-70
2022/03/22 05:53:17;;;;;;;63.03;28.58;;;;;;;0.65;52.81;96149.50;5032593;28;20491;-70
2022/03/22 05:55:42;;;;;;;67.18;30.30;;;;;;;0.99;52.42;96140.19;5015433;28;20040;-70
2022/03/22 05:58:08;;;;;;;60.22;27.55;;;;;;;1.53;51.10;96142.25;5010385;28;20033;-70
2022/03/22 06:00:33;;;;;;;51.70;25.88;;;;;;;2.04;49.12;96138.31;5033459;28;20184;-70
2022/03/22 06:02:59;;;;;;;51.65;22.88;;;;;;;2.32;49.38;96146.06;5017636;28;20400;-70
2022/03/22 06:05:24;;;;;;;34.03;18.98;;;;;;;2.41;49.14;96143.22;5050478;28;20033;-70
2022/03/22 06:07:50;;;;;;;33.10;18.13;;;;;;;2.88;47.76;96139.19;5050890;28;20039;-70
2022/03/22 06:10:15;;;;;;;46.78;22.83;;;;;;;3.10;46.47;96147.06;5034179;28;20029;-70
2022/03/22 06:12:45;;;;;;;43.22;22.65;;;;;;;3.41;45.24;96130.63;5015760;28;20087;-70
2022/03/22 06:15:17;;;;;;;28.08;14.93;;;;;;;3.42;46.11;96139.16;5014866;28;20091;-70
2022/03/22 06:17:47;;;;;;;16.98;10.15;;;;;;;3.70;45.93;96139.91;5034449;28;20041;-70
2022/03/22 06:20:13;;;;;;;36.47;18.35;;;;;;;3.83;44.33;96140.31;5048615;28;20483;-70
2022/03/22 06:22:38;;;;;;;54.65;28.98;;;;;;;4.18;43.08;96130.47;5030551;28;20024;-70
2022/03/22 06:25:04;;;;;;;92.35;43.58;;;;;;;4.42;42.86;96129.56;5036598;28;20427;-70
2022/03/22 06:27:30;;;;;;;90.40;39.08;;;;;;;4.57;42.79;96120.47;5020534;28;20029;-72
2022/03/22 06:29:55;;;;;;;78.40;34.35;;;;;;;4.81;42.09;96128.94;5019999;28;20028;-69
2022/03/22 06:32:20;;;;;;;64.05;32.17;;;;;;;5.07;41.15;96135.66;5043752;28;20037;-70
2022/03/22 06:34:47;;;;;;;42.33;23.75;;;;;;;5.23;39.07;96129.88;5043247;28;20033;-70
2022/03/22 06:37:13;;;;;;;37.97;20.48;;;;;;;5.60;36.64;96116.31;5035456;28;20514;-69
2022/03/22 06:39:38;;;;;;;50.30;26.35;;;;;;;5.80;38.76;96113.69;5039145;28;20025;-69
2022/03/22 06:42:04;;;;;;;45.42;23.33;;;;;;;6.13;36.42;96110.56;5030870;28;20499;-69
2022/03/22 06:44:30;;;;;;;38.63;21.00;;;;;;;6.29;38.09;96115.03;5048715;28;20127;-70
2022/03/22 06:46:55;;;;;;;24.73;15.82;;;;;;;6.52;34.59;96113.97;5048234;28;20029;-71
2022/03/22 06:49:23;;;;;;;23.33;13.68;;;;;;;6.42;34.90;96129.91;5047998;28;20613;-72
2022/03/22 06:51:49;;;;;;;22.35;13.35;;;;;;;6.89;33.42;96118.28;5044153;28;20021;-71
2022/03/22 06:54:14;;;;;;;34.97;16.83;;;;;;;7.14;33.04;96112.75;5047500;28;20021;-71
2022/03/22 06:56:40;;;;;;;29.00;16.10;;;;;;;7.02;33.63;96105.59;5051718;28;20033;-73
2022/03/22 06:59:05;;;;;;;25.85;14.95;;;;;;;7.03;32.94;96102.94;5051284;28;20025;-71
2022/03/22 07:01:31;;;;;;;20.83;12.70;;;;;;;7.11;31.83;96100.00;5049984;28;20029;-70
2022/03/22 07:03:57;;;;;;;15.90;9.52;;;;;;;7.19;31.17;96099.59;5049977;28;20102;-73
2022/03/22 07:06:22;;;;;;;14.13;8.23;;;;;;;7.40;29.43;96108.88;5049915;28;20029;-70
2022/03/22 07:08:48;;;;;;;25.25;14.85;;;;;;;7.42;31.62;96099.31;5049932;28;20491;-71
2022/03/22 07:13:57;;;;;;;30.95;16.73;;;;;;;7.51;33.54;96098.00;5050377;28;20477;-72
2022/03/22 07:16:27;;;;;;;25.75;16.08;;;;;;;7.51;32.04;96104.00;5033260;28;20048;-71
2022/03/22 07:18:53;;;;;;;20.65;10.50;;;;;;;7.53;30.19;96107.38;5051035;28;20048;-72
2022/03/22 07:21:19;;;;;;;30.50;16.10;;;;;;;7.74;32.03;96112.34;5049816;28;20388;-72
2022/03/22 07:23:44;;;;;;;23.23;14.60;;;;;;;7.53;30.86;96104.78;5050900;28;20025;-72
2022/03/22 07:26:10;;;;;;;21.65;14.23;;;;;;;7.20;31.43;96098.69;5049748;28;20040;-72
2022/03/22 07:28:35;;;;;;;21.55;13.98;;;;;;;7.00;32.08;96097.94;5050781;28;20021;-72
2022/03/22 07:31:01;;;;;;;22.02;13.80;;;;;;;6.99;32.13;96098.81;5049702;28;20037;-72
2022/03/22 07:33:27;;;;;;;18.55;12.20;;;;;;;7.09;31.52;96097.47;5049517;28;20103;-72
2022/03/22 07:35:52;;;;;;;24.73;14.70;;;;;;;7.33;30.71;96102.38;5050983;28;20037;-72
2022/03/22 07:38:18;;;;;;;25.13;14.95;;;;;;;7.22;31.72;96102.88;5049471;28;20059;-72
2022/03/22 07:40:43;;;;;;;66.35;32.40;;;;;;;7.32;31.60;96098.09;5051008;28;20044;-72
2022/03/22 07:43:08;;;;;;;45.28;23.98;;;;;;;7.33;31.08;96089.44;5050633;28;20025;-72
2022/03/22 07:45:35;;;;;;;19.10;11.13;;;;;;;7.25;30.31;96097.56;5032929;28;20049;-72
2022/03/22 07:48:00;;;;;;;15.95;8.57;;;;;;;7.30;30.94;96097.31;5050491;28;20049;-72
2022/03/22 07:53:10;;;;;;;12.50;8.20;;;;;;;7.23;31.44;96094.22;5049559;28;20036;-72
2022/03/22 07:55:40;;;;;;;13.50;8.40;;;;;;;7.16;30.99;96090.28;5032834;28;20025;-72
2022/03/22 07:58:05;;;;;;;12.85;8.15;;;;;;;7.11;31.55;96098.25;5032717;28;20048;-72
2022/03/22 08:00:31;;;;;;;13.15;8.75;;;;;;;7.06;31.25;96099.38;5050994;28;20498;-72
2022/03/22 08:02:58;;;;;;;14.32;8.98;;;;;;;7.05;31.57;96106.28;5032808;28;20110;-72
2022/03/22 08:05:24;;;;;;;13.88;8.63;;;;;;;6.97;32.04;96098.06;5032801;28;20132;-72
2022/03/22 08:07:49;;;;;;;16.13;9.32;;;;;;;6.90;32.09;96092.34;5032598;28;20487;-72
2022/03/22 08:10:15;;;;;;;12.55;8.85;;;;;;;7.06;32.26;96091.63;5049280;28;20040;-71
2022/03/22 08:12:41;;;;;;;14.10;9.15;;;;;;;7.00;32.47;96091.94;5049029;28;20029;-71
2022/03/22 08:15:08;;;;;;;129.05;42.47;;;;;;;7.15;32.56;96102.34;5032714;28;20032;-70
2022/03/22 08:17:35;;;;;;;32.85;16.02;;;;;;;7.12;32.75;96097.31;5049027;28;20029;-71
2022/03/22 08:20:00;;;;;;;18.00;10.65;;;;;;;6.95;33.62;96099.88;5050242;28;20056;-71
2022/03/22 08:22:25;;;;;;;18.85;10.02;;;;;;;7.04;33.50;96091.69;5032442;28;20021;-71
2022/03/22 08:24:52;;;;;;;16.67;9.35;;;;;;;7.20;33.32;96094.38;5049955;28;20033;-71
2022/03/22 08:27:18;;;;;;;13.35;9.75;;;;;;;7.02;34.10;96097.84;5053938;28;20029;-71
2022/03/22 08:29:44;;;;;;;14.73;9.95;;;;;;;7.00;34.08;96095.34;5054186;28;20411;-71
2022/03/22 08:32:09;;;;;;;20.13;12.32;;;;;;;7.01;33.79;96093.59;5019703;28;20037;-71
2022/03/22 08:34:35;;;;;;;23.27;11.93;;;;;;;6.98;34.03;96098.91;5052750;28;20032;-71
2022/03/22 08:37:03;;;;;;;18.92;11.35;;;;;;;6.91;34.49;96093.22;5036002;28;20025;-71
2022/03/22 08:39:28;;;;;;;14.50;9.50;;;;;;;6.97;36.09;96098.06;5052623;28;20068;-71
2022/03/22 08:41:53;;;;;;;15.60;9.15;;;;;;;7.00;36.27;96087.59;5052519;28;20032;-71
2022/03/22 08:44:20;;;;;;;14.45;11.88;;;;;;;7.03;36.79;96086.59;5052591;28;20499;-71
2022/03/22 08:46:46;;;;;;;14.95;10.38;;;;;;;7.00;37.41;96090.19;5052439;28;20514;-71
2022/03/22 08:49:12;;;;;;;14.25;9.02;;;;;;;6.86;38.13;96087.41;5053699;28;20033;-71
2022/03/22 08:51:37;;;;;;;15.60;8.60;;;;;;;6.81;38.23;96072.13;5019389;28;20048;-71
2022/03/22 08:54:05;;;;;;;22.10;13.38;;;;;;;6.88;38.40;96094.19;5052457;28;20025;-71
2022/03/22 08:56:30;;;;;;;16.63;9.18;;;;;;;6.93;38.57;96086.19;5052269;28;20036;-70
2022/03/22 08:58:56;;;;;;;12.45;8.57;;;;;;;7.00;38.58;96082.41;5052363;28;20024;-71
2022/03/22 09:01:30;;;;;;;12.35;9.65;;;;;;;7.06;38.07;96076.13;5053904;28;20021;-71
2022/03/22 09:06:40;;;;;;;18.05;10.07;;;;;;;7.02;38.48;96066.81;5052416;28;20040;-71
2022/03/22 09:09:06;;;;;;;17.48;9.63;;;;;;;7.17;38.31;96060.91;5053365;28;20025;-71
2022/03/22 09:11:33;;;;;;;18.30;10.80;;;;;;;7.24;38.50;96057.09;5051925;28;20029;-71
2022/03/22 09:13:59;;;;;;;17.58;11.55;;;;;;;7.31;38.76;96055.91;5052068;28;20111;-71
2022/03/22 09:16:26;;;;;;;17.55;10.70;;;;;;;7.43;39.09;96063.94;5052110;28;20037;-71
2022/03/22 09:18:52;;;;;;;15.35;10.77;;;;;;;7.50;39.67;96063.56;5053113;28;20491;-71
2022/03/22 09:21:17;;;;;;;18.17;10.52;;;;;;;7.51;39.04;96072.16;5052019;28;20033;-71
2022/03/22 09:23:43;;;;;;;14.75;10.18;;;;;;;7.49;38.93;96069.63;5053120;28;20518;-71
2022/03/22 09:26:09;;;;;;;14.88;9.85;;;;;;;7.50;39.39;96068.75;5018756;28;20389;-71
2022/03/22 09:28:34;;;;;;;16.35;11.27;;;;;;;7.51;39.92;96056.63;5051730;28;20029;-71
2022/03/22 09:31:00;;;;;;;18.77;11.40;;;;;;;7.64;39.68;96056.84;5035175;28;20041;-71
2022/03/22 09:33:25;;;;;;;16.20;9.32;;;;;;;7.76;39.46;96046.69;5052909;28;20025;-71
2022/03/22 09:35:53;;;;;;;15.85;10.02;;;;;;;7.92;39.41;96032.97;5052994;28;20029;-71
2022/03/22 09:38:19;;;;;;;14.13;7.45;;;;;;;8.24;39.20;96042.41;5050918;28;20059;-71
2022/03/22 09:40:44;;;;;;;12.82;8.15;;;;;;;8.37;38.98;96032.22;5035032;28;20129;-71
2022/03/22 09:43:10;;;;;;;11.43;7.97;;;;;;;8.55;39.25;96035.59;5052673;28;20396;-72
2022/03/22 09:45:35;;;;;;;11.27;7.38;;;;;;;8.83;38.61;96036.63;5034843;28;20044;-71
2022/03/22 09:48:01;;;;;;;11.93;7.57;;;;;;;8.83;38.36;96034.91;5052504;28;20037;-71
2022/03/22 09:53:12;;;;;;;11.38;7.43;;;;;;;9.00;38.19;96033.09;5052792;28;20505;-71
2022/03/22 09:55:38;;;;;;;13.40;7.35;;;;;;;9.29;38.01;96047.81;5034778;28;20037;-71
2022/03/22 09:58:03;;;;;;;14.15;7.35;;;;;;;9.16;37.05;96026.09;5051224;28;20490;-71
2022/03/22 10:00:29;;;;;;;10.65;6.47;;;;;;;9.20;37.26;96034.56;5034656;28;20095;-70
2022/03/22 10:02:54;;;;;;;8.02;5.88;;;;;;;9.30;37.14;96028.72;5052319;28;20479;-71
2022/03/22 10:05:21;;;;;;;10.07;6.13;;;;;;;9.28;36.41;96024.56;5052423;28;20032;-71
2022/03/22 10:07:58;;;;;;;7.95;5.90;;;;;;;9.21;36.58;96018.06;5034463;28;20453;-71
2022/03/22 10:10:24;;;;;;;8.63;5.50;;;;;;;9.24;37.13;96017.88;5052345;28;20090;-71
2022/03/22 10:12:55;;;;;;;8.85;6.07;;;;;;;9.09;36.79;96010.06;5034308;28;20453;-71
2022/03/22 10:15:30;;;;;;;11.50;6.60;;;;;;;9.09;36.55;96009.25;5034408;28;20028;-71
2022/03/22 10:18:04;;;;;;;11.07;6.45;;;;;;;9.15;37.18;96006.28;5051839;28;20075;-71
2022/03/22 10:20:30;;;;;;;14.13;7.43;;;;;;;9.07;37.38;96006.72;5034605;28;20029;-71
2022/03/22 10:22:58;;;;;;;8.45;6.15;;;;;;;9.13;37.34;96011.56;5034125;28;20108;-71
2022/03/22 10:25:24;;;;;;;9.32;6.28;;;;;;;9.08;38.42;96002.38;5034605;28;20033;-71
2022/03/22 10:27:56;;;;;;;10.98;6.30;;;;;;;9.09;37.56;95999.69;5034001;28;20450;-71
2022/03/22 10:30:21;;;;;;;9.10;5.70;;;;;;;9.05;37.69;96007.75;5050650;28;20043;-71
2022/03/22 10:32:51;;;;;;;12.05;6.43;;;;;;;8.98;38.19;95999.50;5033957;28;20104;-71
2022/03/22 10:35:23;;;;;;;11.20;7.55;;;;;;;9.04;37.79;95993.94;5051863;28;20056;-71
2022/03/22 10:37:53;;;;;;;11.70;6.15;;;;;;;9.08;37.43;95987.69;5050461;28;20021;-71
2022/03/22 10:40:26;;;;;;;12.90;7.57;;;;;;;9.00;37.73;95984.69;5050449;28;20041;-71
2022/03/22 10:42:53;;;;;;;9.60;6.75;;;;;;;8.97;37.72;95986.59;5051560;28;20025;-71
2022/03/22 10:45:19;;;;;;;9.57;6.60;;;;;;;9.01;37.48;95981.16;5050361;28;20037;-71
2022/03/22 10:47:44;;;;;;;8.13;5.53;;;;;;;9.09;38.05;95973.78;5049799;28;20563;-71
2022/03/22 10:50:10;;;;;;;9.45;5.88;;;;;;;9.09;37.80;95972.94;5050970;28;20064;-71
2022/03/22 10:52:46;;;;;;;8.18;5.88;;;;;;;8.97;37.40;95971.06;5051324;28;20483;-71
2022/03/22 10:55:11;;;;;;;8.38;5.65;;;;;;;8.86;38.19;95967.34;5033776;28;20025;-71
2022/03/22 10:57:37;;;;;;;9.75;5.90;;;;;;;8.96;38.34;95970.22;5033438;28;20494;-71
2022/03/22 11:00:05;;;;;;;10.90;6.28;;;;;;;8.91;38.15;95967.94;5033770;28;20037;-71
2022/03/22 11:02:33;;;;;;;11.65;6.07;;;;;;;8.91;37.87;95960.16;5049907;28;20040;-71
2022/03/22 11:05:00;;;;;;;9.98;5.93;;;;;;;8.85;38.76;95950.13;5051325;28;20039;-71
2022/03/22 11:07:26;;;;;;;8.10;6.00;;;;;;;9.11;37.64;95950.34;5033556;28;20028;-71
2022/03/22 11:09:51;;;;;;;7.90;5.93;;;;;;;9.17;37.43;95952.59;5033216;28;20098;-71
2022/03/22 11:12:18;;;;;;;9.57;6.20;;;;;;;9.21;38.08;95959.25;5032452;28;20021;-71
2022/03/22 11:14:44;;;;;;;10.00;5.90;;;;;;;9.21;37.20;95951.47;5049893;28;20110;-71
2022/03/22 11:17:10;;;;;;;9.48;6.25;;;;;;;9.33;37.37;95948.19;5049757;28;20020;-71
2022/03/22 11:19:35;;;;;;;9.63;6.80;;;;;;;9.56;36.61;95936.41;5032951;28;20041;-71
2022/03/22 11:22:07;;;;;;;10.85;8.10;;;;;;;9.32;37.34;95946.47;5049703;28;20040;-71
2022/03/22 11:24:34;;;;;;;10.60;6.22;;;;;;;9.22;36.90;95931.56;5032893;28;20547;-71
2022/03/22 11:27:00;;;;;;;10.57;6.45;;;;;;;9.10;36.98;95925.34;5032932;28;20051;-71
2022/03/22 11:29:25;;;;;;;9.25;5.97;;;;;;;9.23;36.87;95923.72;5016466;28;20490;-71
2022/03/22 11:34:35;;;;;;;20.92;11.98;;;;;;;9.58;36.09;95915.53;5049768;28;20068;-71
2022/03/22 11:37:01;;;;;;;11.68;6.97;;;;;;;9.74;36.18;95913.66;5049536;28;20487;-71
2022/03/22 11:42:31;;;;;;;8.55;5.72;;;;;;;9.65;36.09;95909.06;5017244;28;20033;-71
2022/03/22 11:45:02;;;;;;;11.48;6.13;;;;;;;9.48;35.90;95910.09;5011978;28;20084;-71
2022/03/22 11:47:56;;;;;;;7.85;5.43;;;;;;;9.44;35.42;95890.44;5012565;28;20124;-71
2022/03/22 11:50:22;;;;;;;6.18;5.03;;;;;;;9.51;35.55;95901.28;5028302;28;20423;-72
2022/03/22 11:52:48;;;;;;;9.07;5.72;;;;;;;9.63;35.93;95898.75;5032674;28;20029;-71
2022/03/22 11:55:22;;;;;;;8.73;5.13;;;;;;;9.88;34.96;95888.63;5049437;28;20083;-71